Time;durP1;ratioP1;P1;durP2;ratioP2;P2;SDS_P1;SDS_P2;PMS_P1;PMS_P2;Temp;Humidity;BMP_temperature;BMP_pressure;BME280_temperature;BME280_humidity;BME280_pressure;Samples;Min_cycle;Max_cycle;Signal;HPM_P1;HPM_P2
2024/02/24 00:00:15;;;;;;;19.83;13.43;;;;;;;1.80;66.34;100638.00;5051683;28;20103;-65
2024/02/24 00:02:41;;;;;;;21.92;14.07;;;;;;;1.77;67.00;100640.72;5051034;28;20064;-64
2024/02/24 00:05:07;;;;;;;23.23;14.45;;;;;;;1.77;67.30;100653.06;5051618;28;20144;-64
2024/02/24 00:07:33;;;;;;;19.92;14.40;;;;;;;1.70;66.93;100626.84;5050999;28;20093;-63
2024/02/24 00:09:58;;;;;;;27.67;14.32;;;;;;;1.71;67.57;100635.66;5051425;28;20029;-63
2024/02/24 00:12:24;;;;;;;20.75;14.15;;;;;;;1.79;67.64;100644.19;5051885;28;20026;-65
2024/02/24 00:14:50;;;;;;;19.50;12.38;;;;;;;1.96;66.57;100645.44;5051088;28;20025;-64
2024/02/24 00:17:15;;;;;;;19.63;12.73;;;;;;;1.86;66.66;100640.44;5051235;28;20071;-64
2024/02/24 00:19:41;;;;;;;21.48;13.50;;;;;;;1.76;67.41;100636.38;5051613;28;20437;-67
2024/02/24 00:22:06;;;;;;;19.95;14.20;;;;;;;1.74;67.18;100639.94;5051410;28;20048;-64
2024/02/24 00:24:32;;;;;;;22.75;13.68;;;;;;;1.77;67.35;100658.34;5051474;28;20035;-64
2024/02/24 00:26:57;;;;;;;19.58;13.30;;;;;;;1.78;67.09;100646.84;5051251;28;20338;-64
2024/02/24 00:29:23;;;;;;;18.90;11.90;;;;;;;1.75;66.55;100621.44;5050302;28;20025;-63
2024/02/24 00:31:48;;;;;;;16.30;11.98;;;;;;;1.81;66.61;100631.78;5051604;28;20777;-62
2024/02/24 00:34:14;;;;;;;21.13;13.57;;;;;;;1.48;66.41;100594.09;5050599;28;20025;-64
2024/02/24 00:36:40;;;;;;;19.50;13.00;;;;;;;1.64;66.96;100636.72;5050422;28;20071;-65
2024/02/24 00:39:06;;;;;;;21.05;14.25;;;;;;;1.62;67.71;100633.25;5050722;28;20044;-63
2024/02/24 00:41:31;;;;;;;22.77;13.88;;;;;;;1.66;67.38;100641.06;5050336;28;20021;-63
2024/02/24 00:43:57;;;;;;;20.88;13.25;;;;;;;1.71;67.20;100648.84;5050785;28;20372;-63
2024/02/24 00:46:23;;;;;;;21.77;14.02;;;;;;;1.75;67.56;100639.91;5050866;28;20021;-63
2024/02/24 00:48:48;;;;;;;20.45;13.45;;;;;;;1.69;66.80;100634.84;5050828;28;20128;-63
2024/02/24 00:51:14;;;;;;;19.10;12.95;;;;;;;1.75;66.98;100637.28;5050671;28;20105;-64
2024/02/24 00:53:40;;;;;;;21.50;14.90;;;;;;;1.67;67.16;100636.63;5050337;28;20178;-62
2024/02/24 00:56:05;;;;;;;19.00;13.50;;;;;;;1.67;66.96;100641.91;5049923;28;20033;-65
2024/02/24 00:58:31;;;;;;;20.10;14.60;;;;;;;1.68;66.85;100652.44;5051019;28;20040;-63
2024/02/24 01:00:57;;;;;;;20.98;13.57;;;;;;;1.66;67.21;100658.66;5050655;28;20029;-64
2024/02/24 01:03:22;;;;;;;20.45;13.10;;;;;;;1.68;66.79;100646.28;5050502;28;20037;-65
2024/02/24 01:05:48;;;;;;;21.45;14.02;;;;;;;1.41;67.23;100602.22;5050698;28;20135;-62
2024/02/24 01:08:13;;;;;;;22.13;14.70;;;;;;;1.58;67.06;100657.13;5050463;28;20029;-64
2024/02/24 01:10:39;;;;;;;20.95;14.48;;;;;;;1.46;66.81;100611.75;5050688;28;20044;-64
2024/02/24 01:13:05;;;;;;;23.75;14.73;;;;;;;1.64;67.01;100648.16;5050799;28;20393;-64
2024/02/24 01:15:32;;;;;;;19.90;14.38;;;;;;;1.67;67.20;100655.09;5050865;28;20437;-65
2024/02/24 01:17:58;;;;;;;21.90;13.70;;;;;;;1.70;66.82;100655.88;5049433;28;20033;-64
2024/02/24 01:20:25;;;;;;;21.42;14.70;;;;;;;1.77;66.70;100651.28;5050552;28;20037;-65
2024/02/24 01:22:53;;;;;;;20.77;13.93;;;;;;;1.77;66.50;100645.13;5050345;28;20052;-65
2024/02/24 01:25:20;;;;;;;21.88;14.20;;;;;;;1.72;67.29;100664.63;5050073;28;20109;-64
2024/02/24 01:27:45;;;;;;;20.65;14.18;;;;;;;1.71;66.28;100667.31;5050772;28;20029;-64
2024/02/24 01:30:11;;;;;;;20.55;14.27;;;;;;;1.67;66.49;100677.09;5050610;28;20025;-65
2024/02/24 01:32:37;;;;;;;23.58;14.27;;;;;;;1.68;66.22;100664.75;5050210;28;20028;-65
2024/02/24 01:35:03;;;;;;;25.58;15.13;;;;;;;1.65;66.12;100657.81;5049426;28;20449;-60
2024/02/24 01:37:30;;;;;;;23.08;15.18;;;;;;;1.61;66.91;100660.56;5031717;28;20033;-64
2024/02/24 01:39:55;;;;;;;21.60;14.77;;;;;;;1.66;66.62;100675.38;5050290;28;20041;-64
2024/02/24 01:42:21;;;;;;;24.65;14.65;;;;;;;1.41;65.94;100619.81;5049882;28;20032;-64
2024/02/24 01:44:46;;;;;;;22.77;14.65;;;;;;;1.63;66.46;100679.88;5050142;28;20074;-65
2024/02/24 01:47:12;;;;;;;25.05;15.27;;;;;;;1.58;66.27;100662.41;5050487;28;20033;-65
2024/02/24 01:49:41;;;;;;;22.90;14.75;;;;;;;1.58;66.72;100672.97;5050081;28;20036;-65
2024/02/24 01:52:07;;;;;;;24.17;16.00;;;;;;;1.53;66.88;100663.44;5049577;28;20078;-65
2024/02/24 01:54:35;;;;;;;23.30;15.13;;;;;;;1.56;66.62;100660.69;5050179;28;20040;-64
2024/02/24 01:57:04;;;;;;;22.90;15.35;;;;;;;1.34;66.58;100621.78;5050032;28;20101;-64
2024/02/24 01:59:31;;;;;;;23.70;15.80;;;;;;;1.64;66.21;100676.31;5049832;28;20053;-64
2024/02/24 02:01:57;;;;;;;23.67;15.18;;;;;;;1.57;66.52;100676.50;5049167;28;20033;-64
2024/02/24 02:04:22;;;;;;;22.58;14.52;;;;;;;1.58;66.90;100662.41;5049554;28;20359;-65
2024/02/24 02:06:48;;;;;;;23.52;14.95;;;;;;;1.64;66.85;100673.69;5049407;28;20025;-64
2024/02/24 02:09:14;;;;;;;22.00;14.90;;;;;;;1.69;66.34;100682.34;5049592;28;20078;-67
2024/02/24 02:11:39;;;;;;;24.77;15.70;;;;;;;1.35;66.28;100628.78;5049030;28;20033;-64
2024/02/24 02:14:05;;;;;;;25.67;15.25;;;;;;;1.61;67.11;100682.56;5049336;27;20032;-62
2024/02/24 02:16:34;;;;;;;25.17;15.35;;;;;;;1.73;66.41;100670.78;5049886;28;20442;-65
2024/02/24 02:18:59;;;;;;;23.55;15.52;;;;;;;1.66;66.54;100680.66;5050369;28;20512;-65
2024/02/24 02:21:26;;;;;;;25.05;14.80;;;;;;;1.68;66.74;100691.16;5049406;28;20025;-64
2024/02/24 02:23:52;;;;;;;31.48;16.52;;;;;;;1.73;65.94;100697.19;5049176;28;20029;-64
2024/02/24 02:26:18;;;;;;;26.48;16.25;;;;;;;1.71;66.36;100676.09;5049801;28;20032;-65
2024/02/24 02:28:44;;;;;;;25.40;16.23;;;;;;;1.75;66.29;100689.19;5049024;28;20029;-62
2024/02/24 02:31:10;;;;;;;25.08;16.55;;;;;;;1.61;66.00;100674.66;5049090;28;20496;-62
2024/02/24 02:33:35;;;;;;;24.00;15.95;;;;;;;1.54;66.60;100666.03;5047904;28;20072;-59
2024/02/24 02:36:01;;;;;;;25.02;16.25;;;;;;;1.73;65.92;100694.53;5048431;28;20045;-62
2024/02/24 02:38:27;;;;;;;27.35;16.80;;;;;;;1.71;66.50;100704.28;5049318;28;20037;-64
2024/02/24 02:40:52;;;;;;;25.50;16.13;;;;;;;1.72;66.16;100695.47;5049145;28;20029;-63
2024/02/24 02:43:18;;;;;;;26.88;16.15;;;;;;;1.65;66.05;100693.88;5048885;28;20044;-64
2024/02/24 02:45:43;;;;;;;26.95;16.10;;;;;;;1.71;66.07;100691.09;5049451;28;20029;-64
2024/02/24 02:48:10;;;;;;;25.33;16.65;;;;;;;1.68;66.09;100696.44;5048314;28;20069;-62
2024/02/24 02:50:36;;;;;;;24.85;16.52;;;;;;;1.66;66.23;100685.94;5048973;28;20040;-62
2024/02/24 02:53:02;;;;;;;24.98;16.73;;;;;;;1.79;66.11;100693.47;5049168;28;20353;-64
2024/02/24 02:55:28;;;;;;;24.58;16.50;;;;;;;1.78;65.82;100702.31;5048970;28;20453;-63
2024/02/24 02:57:53;;;;;;;25.02;16.25;;;;;;;1.80;65.59;100704.00;5048622;28;20029;-63
2024/02/24 03:00:19;;;;;;;28.27;16.67;;;;;;;1.78;66.22;100703.19;5049113;28;20033;-64
2024/02/24 03:02:44;;;;;;;23.38;15.88;;;;;;;1.65;66.64;100688.59;5048864;28;20081;-63
2024/02/24 03:05:10;;;;;;;25.33;16.00;;;;;;;1.77;66.09;100714.66;5047756;28;20462;-64
2024/02/24 03:07:36;;;;;;;22.38;16.08;;;;;;;1.79;66.04;100718.13;5049269;28;20445;-63
2024/02/24 03:10:02;;;;;;;22.80;15.93;;;;;;;1.79;66.01;100706.66;5048458;28;20394;-64
2024/02/24 03:12:29;;;;;;;26.70;15.85;;;;;;;1.85;65.88;100717.94;5048912;28;20029;-63
2024/02/24 03:14:56;;;;;;;23.77;14.75;;;;;;;1.91;65.39;100718.63;5049121;27;20168;-63
2024/02/24 03:17:22;;;;;;;24.38;16.00;;;;;;;1.68;65.96;100692.03;5048842;28;20033;-63
2024/02/24 03:19:47;;;;;;;28.10;16.15;;;;;;;1.66;66.12;100706.16;5050932;28;20029;-64
2024/02/24 03:22:13;;;;;;;24.60;15.55;;;;;;;1.62;66.36;100694.84;5051564;28;20029;-64
2024/02/24 03:24:42;;;;;;;29.33;15.63;;;;;;;1.86;66.08;100714.38;5052898;28;20097;-62
2024/02/24 03:27:08;;;;;;;25.48;15.30;;;;;;;1.72;65.81;100727.13;5032431;28;20033;-63
2024/02/24 03:29:34;;;;;;;23.48;15.82;;;;;;;1.64;66.23;100705.34;5032261;28;20033;-64
2024/02/24 03:32:00;;;;;;;23.75;16.48;;;;;;;1.67;66.40;100702.63;5032499;28;20048;-64
2024/02/24 03:34:26;;;;;;;21.35;14.88;;;;;;;1.69;66.26;100716.66;5032727;28;20469;-63
2024/02/24 03:36:52;;;;;;;20.02;14.32;;;;;;;1.75;65.98;100713.84;5031895;28;20030;-64
2024/02/24 03:39:18;;;;;;;25.45;15.57;;;;;;;1.70;66.45;100718.41;5031927;28;20059;-63
2024/02/24 03:41:45;;;;;;;23.95;15.75;;;;;;;1.70;65.96;100729.81;5048304;28;20036;-63
2024/02/24 03:44:11;;;;;;;22.10;14.88;;;;;;;1.69;66.11;100721.94;5052544;28;20036;-62
2024/02/24 03:46:36;;;;;;;25.05;15.60;;;;;;;1.70;65.75;100723.69;5051650;28;20044;-65
2024/02/24 03:49:02;;;;;;;24.77;15.98;;;;;;;1.75;66.03;100732.31;5051780;28;20499;-65
2024/02/24 03:51:28;;;;;;;21.83;15.98;;;;;;;1.77;65.90;100735.78;5051849;28;20048;-65
2024/02/24 03:53:53;;;;;;;23.15;15.80;;;;;;;1.72;66.04;100724.50;5034819;28;20445;-64
2024/02/24 03:56:19;;;;;;;23.15;14.85;;;;;;;1.75;65.80;100736.72;5051698;28;20084;-65
2024/02/24 03:58:45;;;;;;;26.00;15.07;;;;;;;1.77;65.71;100742.81;5051644;28;20029;-65
2024/02/24 04:01:11;;;;;;;25.60;16.25;;;;;;;1.79;65.14;100731.31;5051880;28;20021;-59
2024/02/24 04:03:37;;;;;;;22.02;15.63;;;;;;;1.70;65.90;100728.97;5051783;28;20036;-65
2024/02/24 04:06:04;;;;;;;26.80;15.13;;;;;;;1.67;65.91;100745.75;5051329;28;20043;-64
2024/02/24 04:08:30;;;;;;;27.70;16.48;;;;;;;1.75;66.22;100737.59;5051095;28;20475;-66
2024/02/24 04:10:55;;;;;;;24.48;15.13;;;;;;;1.75;65.16;100728.81;5051836;28;20033;-65
2024/02/24 04:13:21;;;;;;;24.38;16.50;;;;;;;1.70;65.51;100726.31;5052020;28;20029;-67
2024/02/24 04:15:47;;;;;;;22.77;15.05;;;;;;;1.69;65.29;100741.28;5051456;27;20068;-63
2024/02/24 04:18:14;;;;;;;25.73;17.23;;;;;;;1.70;65.74;100750.94;5051205;28;20060;-63
2024/02/24 04:20:40;;;;;;;26.90;16.25;;;;;;;1.67;66.12;100751.03;5051605;28;20093;-63
2024/02/24 04:23:05;;;;;;;23.23;15.77;;;;;;;1.66;66.03;100754.56;5051441;28;20444;-64
2024/02/24 04:25:31;;;;;;;24.70;16.35;;;;;;;1.69;65.51;100753.63;5051207;28;20033;-65
2024/02/24 04:27:56;;;;;;;22.40;15.57;;;;;;;1.38;65.63;100706.97;5050427;28;20033;-65
2024/02/24 04:30:22;;;;;;;29.63;16.55;;;;;;;1.70;65.69;100758.84;5050245;28;20029;-66
2024/02/24 04:32:48;;;;;;;23.23;14.93;;;;;;;1.68;65.86;100765.94;5049523;28;20029;-64
2024/02/24 04:35:13;;;;;;;26.25;16.52;;;;;;;1.60;66.01;100759.16;5050989;28;20118;-62
2024/02/24 04:37:40;;;;;;;23.90;15.13;;;;;;;1.61;65.90;100756.47;5051494;28;20073;-64
2024/02/24 04:40:07;;;;;;;25.02;15.80;;;;;;;1.70;65.86;100766.78;5050568;28;20036;-65
2024/02/24 04:42:33;;;;;;;24.10;16.27;;;;;;;1.63;65.93;100749.38;5051020;28;20131;-64
2024/02/24 04:44:58;;;;;;;23.63;13.18;;;;;;;1.66;65.72;100758.97;5050649;28;20033;-64
2024/02/24 04:47:25;;;;;;;25.92;16.83;;;;;;;1.60;66.30;100761.78;5050956;28;20120;-64
2024/02/24 04:49:52;;;;;;;25.92;16.55;;;;;;;1.58;66.54;100746.00;5050755;28;20063;-65
2024/02/24 04:52:17;;;;;;;26.10;16.23;;;;;;;1.61;66.36;100755.59;5050639;28;20085;-64
2024/02/24 04:54:43;;;;;;;22.55;15.52;;;;;;;1.62;66.33;100728.28;5051551;28;20029;-64
2024/02/24 04:57:09;;;;;;;27.42;16.35;;;;;;;1.60;66.34;100749.47;5050072;28;20029;-64
2024/02/24 04:59:35;;;;;;;26.75;16.33;;;;;;;1.62;66.14;100763.50;5050708;28;20029;-63
2024/02/24 05:02:01;;;;;;;26.92;16.70;;;;;;;1.63;65.96;100757.31;5050371;28;20033;-66
2024/02/24 05:04:26;;;;;;;22.60;13.93;;;;;;;1.79;65.39;100739.25;5050782;28;20403;-64
2024/02/24 05:06:52;;;;;;;23.25;15.20;;;;;;;1.75;65.63;100747.28;5049807;28;20025;-65
2024/02/24 05:09:17;;;;;;;28.05;16.27;;;;;;;1.62;65.96;100741.50;5050676;28;20044;-64
2024/02/24 05:11:43;;;;;;;25.73;15.85;;;;;;;1.61;65.77;100747.69;5051001;28;20033;-67
2024/02/24 05:14:08;;;;;;;26.80;16.40;;;;;;;1.56;66.44;100767.16;5050195;28;20036;-65
2024/02/24 05:16:39;;;;;;;23.30;15.02;;;;;;;1.60;66.13;100744.19;5050224;27;20140;-64
2024/02/24 05:19:04;;;;;;;28.17;16.40;;;;;;;1.64;66.25;100782.78;5050590;28;20017;-63
2024/02/24 05:21:30;;;;;;;27.55;17.58;;;;;;;1.70;66.35;100761.50;5050314;28;20037;-65
2024/02/24 05:23:55;;;;;;;24.73;16.77;;;;;;;1.77;65.90;100763.94;5050409;28;20044;-64
2024/02/24 05:26:23;;;;;;;26.17;16.23;;;;;;;1.74;66.00;100767.56;5049924;28;20028;-65
2024/02/24 05:28:49;;;;;;;23.73;15.60;;;;;;;1.80;65.82;100748.00;5050934;28;20060;-63
2024/02/24 05:31:14;;;;;;;25.17;16.40;;;;;;;1.83;65.71;100751.44;5050774;28;20067;-65
2024/02/24 05:33:40;;;;;;;26.33;16.63;;;;;;;1.87;65.75;100752.22;5050056;28;20037;-66
2024/02/24 05:36:05;;;;;;;26.15;16.35;;;;;;;1.56;65.58;100705.56;5050117;28;20044;-67
2024/02/24 05:38:34;;;;;;;25.23;16.73;;;;;;;1.93;65.48;100753.78;5050665;28;20049;-65
2024/02/24 05:41:01;;;;;;;24.75;16.35;;;;;;;1.94;65.14;100756.41;5050460;28;20029;-64
2024/02/24 05:43:27;;;;;;;27.98;16.85;;;;;;;1.88;65.86;100753.06;5049721;28;20029;-65
2024/02/24 05:45:54;;;;;;;25.80;17.20;;;;;;;1.88;65.75;100772.44;5050340;28;20398;-64
2024/02/24 05:48:19;;;;;;;26.20;17.15;;;;;;;1.93;65.66;100773.16;5050515;28;20457;-62
2024/02/24 05:50:45;;;;;;;26.10;16.00;;;;;;;1.89;65.30;100786.50;5050034;28;20029;-65
2024/02/24 05:53:11;;;;;;;26.15;17.52;;;;;;;1.89;65.50;100765.38;5049120;28;20109;-66
2024/02/24 05:55:36;;;;;;;26.65;16.90;;;;;;;1.88;65.68;100764.50;5049790;28;20038;-64
2024/02/24 05:58:02;;;;;;;27.02;16.13;;;;;;;1.93;65.68;100782.84;5050228;28;20119;-65
2024/02/24 06:00:28;;;;;;;24.75;15.70;;;;;;;1.92;64.93;100750.31;5050131;28;20116;-65
2024/02/24 06:02:53;;;;;;;25.80;17.27;;;;;;;1.90;65.28;100773.25;5049386;28;20084;-65
2024/02/24 06:05:19;;;;;;;27.40;17.27;;;;;;;1.89;65.43;100773.28;5049681;28;20061;-63
2024/02/24 06:07:44;;;;;;;26.25;16.52;;;;;;;1.89;65.39;100781.22;5050363;28;20452;-64
2024/02/24 06:10:10;;;;;;;29.10;17.23;;;;;;;1.93;65.18;100788.13;5049732;28;20036;-69
2024/02/24 06:12:36;;;;;;;26.13;17.17;;;;;;;1.99;64.89;100799.38;5049061;28;20047;-63
2024/02/24 06:15:01;;;;;;;28.50;18.23;;;;;;;2.05;65.05;100779.84;5048591;28;20029;-70
2024/02/24 06:17:30;;;;;;;27.60;16.08;;;;;;;2.06;65.18;100792.16;5050312;28;20120;-69
2024/02/24 06:19:55;;;;;;;28.13;17.27;;;;;;;2.05;65.72;100787.78;5048827;27;20080;-68
2024/02/24 06:22:21;;;;;;;24.98;16.92;;;;;;;2.08;65.60;100790.31;5049392;28;20032;-67
2024/02/24 06:24:46;;;;;;;33.28;17.02;;;;;;;2.08;65.12;100766.56;5049179;28;20033;-69
2024/02/24 06:27:12;;;;;;;29.73;17.98;;;;;;;2.11;65.28;100776.19;5049350;28;20036;-69
2024/02/24 06:29:37;;;;;;;28.85;16.88;;;;;;;2.13;65.30;100777.84;5049243;28;20029;-70
2024/02/24 06:32:03;;;;;;;28.00;17.38;;;;;;;2.00;64.96;100758.00;5049167;28;20448;-70
2024/02/24 06:34:29;;;;;;;28.38;17.40;;;;;;;2.24;64.91;100797.81;5048974;28;20395;-70
2024/02/24 06:36:54;;;;;;;29.95;17.80;;;;;;;2.31;64.88;100780.84;5049306;28;20029;-71
2024/02/24 06:39:20;;;;;;;30.17;17.77;;;;;;;2.34;64.19;100777.25;5048798;28;20470;-62
2024/02/24 06:41:45;;;;;;;26.83;16.77;;;;;;;2.39;64.07;100789.38;5049432;28;20440;-67
2024/02/24 06:44:11;;;;;;;35.40;18.90;;;;;;;2.46;63.82;100800.63;5049274;28;20436;-69
2024/02/24 06:46:36;;;;;;;32.78;17.83;;;;;;;2.54;64.13;100803.94;5049053;28;20025;-66
2024/02/24 06:49:02;;;;;;;26.92;17.77;;;;;;;2.51;63.88;100800.50;5049332;28;20029;-70
2024/02/24 06:51:28;;;;;;;28.20;17.63;;;;;;;2.46;63.81;100798.00;5049008;28;20067;-69
2024/02/24 06:53:54;;;;;;;29.88;18.30;;;;;;;2.41;64.11;100821.94;5047832;28;20151;-65
2024/02/24 06:56:20;;;;;;;31.08;18.83;;;;;;;2.46;64.04;100805.06;5049325;28;20029;-66
2024/02/24 06:58:46;;;;;;;32.30;17.75;;;;;;;2.39;64.24;100802.59;5050909;28;20120;-73
2024/02/24 07:01:20;;;;;;;32.20;18.65;;;;;;;2.47;65.01;100806.81;5048655;28;20111;-74
2024/02/24 07:03:45;;;;;;;29.88;18.13;;;;;;;2.47;64.03;100814.75;5048966;28;20037;-72
2024/02/24 07:06:12;;;;;;;31.77;18.65;;;;;;;2.40;64.33;100814.06;5049393;28;20350;-73
2024/02/24 07:08:37;;;;;;;31.63;18.88;;;;;;;2.34;64.36;100798.41;5048805;28;20041;-73
2024/02/24 07:11:03;;;;;;;31.13;18.58;;;;;;;2.32;64.74;100794.94;5048158;28;20032;-74
2024/02/24 07:13:29;;;;;;;29.80;18.52;;;;;;;2.48;64.58;100817.31;5048851;28;20052;-74
2024/02/24 07:15:54;;;;;;;31.70;18.45;;;;;;;2.51;64.25;100805.78;5048500;28;20074;-73
2024/02/24 07:18:20;;;;;;;31.92;20.08;;;;;;;2.51;64.46;100816.38;5048915;28;20085;-74
2024/02/24 07:20:45;;;;;;;31.77;19.27;;;;;;;2.60;63.84;100834.56;5048625;28;20077;-73
2024/02/24 07:23:11;;;;;;;29.85;18.85;;;;;;;2.63;63.82;100810.69;5049130;28;20032;-73
2024/02/24 07:25:38;;;;;;;35.38;20.13;;;;;;;2.49;64.68;100804.97;5049262;28;20025;-74
2024/02/24 07:28:04;;;;;;;34.75;20.88;;;;;;;2.60;64.24;100816.06;5048791;28;20429;-74
2024/02/24 07:30:30;;;;;;;35.67;20.15;;;;;;;2.41;64.39;100790.22;5048517;28;20068;-73
2024/02/24 07:32:56;;;;;;;32.88;19.98;;;;;;;2.71;63.98;100824.53;5049563;28;20097;-72
2024/02/24 07:35:21;;;;;;;34.00;19.30;;;;;;;2.73;63.13;100809.50;5048420;28;20037;-75
2024/02/24 07:37:48;;;;;;;34.22;20.60;;;;;;;2.23;64.14;100735.31;5048342;28;20426;-73
2024/02/24 07:40:14;;;;;;;30.58;19.65;;;;;;;2.73;63.91;100812.13;5048530;28;20068;-72
2024/02/24 07:42:39;;;;;;;33.15;20.65;;;;;;;2.76;64.06;100828.81;5048635;28;20116;-72
2024/02/24 07:45:07;;;;;;;31.77;18.42;;;;;;;2.67;63.37;100809.69;5049152;28;20085;-72
2024/02/24 07:47:32;;;;;;;33.13;19.75;;;;;;;2.65;64.44;100819.44;5048374;28;20421;-70
2024/02/24 07:49:58;;;;;;;33.42;20.98;;;;;;;2.70;63.59;100812.22;5048362;28;20115;-73
2024/02/24 07:52:24;;;;;;;32.45;19.40;;;;;;;2.69;64.13;100792.00;5048545;28;20315;-73
2024/02/24 07:54:50;;;;;;;32.15;19.85;;;;;;;2.78;64.41;100814.63;5048754;28;20377;-73
2024/02/24 07:57:15;;;;;;;30.38;20.17;;;;;;;2.78;63.53;100803.19;5048243;28;20033;-72
2024/02/24 07:59:41;;;;;;;32.28;20.00;;;;;;;2.80;64.26;100807.50;5047854;28;20044;-73
2024/02/24 08:02:06;;;;;;;30.85;19.85;;;;;;;2.84;63.63;100813.56;5048456;28;20040;-73
2024/02/24 08:04:32;;;;;;;28.83;18.65;;;;;;;2.87;63.46;100813.44;5048892;28;20033;-73
2024/02/24 08:06:57;;;;;;;33.38;20.42;;;;;;;2.90;63.52;100809.84;5050460;28;20025;-72
2024/02/24 08:09:23;;;;;;;35.60;19.75;;;;;;;2.85;63.61;100816.16;5051266;28;20035;-72
2024/02/24 08:11:48;;;;;;;28.77;16.95;;;;;;;2.90;63.14;100821.31;5051908;28;20433;-72
2024/02/24 08:14:14;;;;;;;35.15;20.33;;;;;;;2.79;63.96;100818.13;5051711;28;20700;-72
2024/02/24 08:16:39;;;;;;;30.33;19.63;;;;;;;2.75;63.84;100809.41;5051067;28;20471;-72
2024/02/24 08:19:10;;;;;;;33.60;20.05;;;;;;;2.72;63.88;100813.03;5050801;28;20045;-71
2024/02/24 08:21:38;;;;;;;30.30;19.45;;;;;;;2.72;63.65;100815.69;5050645;28;20072;-72
2024/02/24 08:24:07;;;;;;;31.30;19.25;;;;;;;2.72;63.99;100815.69;5051096;28;20043;-73
2024/02/24 08:26:39;;;;;;;31.52;19.00;;;;;;;2.64;63.43;100799.19;5050422;28;20061;-72
2024/02/24 08:29:05;;;;;;;31.60;19.55;;;;;;;2.78;63.10;100819.03;5050937;28;20333;-70
2024/02/24 08:31:33;;;;;;;37.28;21.38;;;;;;;2.65;63.55;100802.72;5051493;28;20029;-70
2024/02/24 08:33:58;;;;;;;30.40;18.73;;;;;;;2.72;63.47;100838.63;5050929;28;20568;-70
2024/02/24 08:36:24;;;;;;;34.28;19.88;;;;;;;2.84;63.47;100832.06;5048230;28;20037;-71
2024/02/24 08:38:50;;;;;;;32.88;19.65;;;;;;;2.72;63.74;100815.69;5040228;28;20068;-72
2024/02/24 08:41:15;;;;;;;37.80;19.58;;;;;;;2.81;64.08;100835.69;5049731;28;20364;-72
2024/02/24 08:43:41;;;;;;;29.90;20.27;;;;;;;2.83;63.14;100817.13;5044243;28;20388;-69
2024/02/24 08:46:06;;;;;;;31.15;19.15;;;;;;;2.85;63.39;100825.84;5036195;28;20025;-71
2024/02/24 08:48:32;;;;;;;29.75;19.02;;;;;;;2.89;63.77;100848.66;5029754;28;20028;-70
2024/02/24 08:50:58;;;;;;;30.70;18.15;;;;;;;2.88;62.91;100820.47;5030846;28;20036;-66
2024/02/24 08:53:23;;;;;;;26.23;17.98;;;;;;;2.83;62.98;100818.00;5030716;28;20056;-71
2024/02/24 08:55:49;;;;;;;31.35;19.73;;;;;;;2.87;63.53;100816.09;5033115;28;20406;-70
2024/02/24 08:58:14;;;;;;;30.48;19.52;;;;;;;2.96;63.13;100818.44;5050621;28;20082;-73
2024/02/24 09:00:40;;;;;;;29.85;19.85;;;;;;;2.80;63.15;100774.91;5051116;28;20036;-74
2024/02/24 09:03:06;;;;;;;30.67;18.27;;;;;;;3.18;62.16;100817.75;5043430;28;20086;-69
2024/02/24 09:05:31;;;;;;;28.38;18.65;;;;;;;3.19;62.42;100816.81;5048944;27;20025;-70
2024/02/24 09:07:57;;;;;;;28.42;18.85;;;;;;;3.25;62.63;100826.31;5048732;28;20025;-73
2024/02/24 09:10:22;;;;;;;27.50;18.15;;;;;;;3.26;62.68;100826.28;5049395;28;20093;-74
2024/02/24 09:12:48;;;;;;;31.02;19.10;;;;;;;3.38;62.61;100834.72;5050774;28;20761;-72
2024/02/24 09:15:13;;;;;;;31.42;19.13;;;;;;;3.38;62.57;100855.91;5032435;28;20338;-71
2024/02/24 09:17:39;;;;;;;26.42;18.65;;;;;;;3.29;62.14;100826.16;5050005;28;20052;-70
2024/02/24 09:20:07;;;;;;;31.05;19.00;;;;;;;3.32;63.09;100825.22;5050122;28;20025;-71
2024/02/24 09:22:33;;;;;;;29.83;19.92;;;;;;;3.43;63.12;100836.28;5049000;27;20032;-71
2024/02/24 09:24:58;;;;;;;29.02;18.05;;;;;;;3.43;61.33;100841.56;5050294;28;20050;-71
2024/02/24 09:27:24;;;;;;;29.35;19.48;;;;;;;3.34;62.00;100860.44;5050676;28;20032;-69
2024/02/24 09:29:49;;;;;;;30.08;18.50;;;;;;;3.23;61.77;100831.69;5050705;28;20052;-70
2024/02/24 09:32:17;;;;;;;33.35;20.50;;;;;;;3.41;61.21;100847.84;5049699;28;20045;-72
2024/02/24 09:34:43;;;;;;;28.85;18.65;;;;;;;3.21;62.26;100856.44;5049628;28;20029;-69
2024/02/24 09:37:09;;;;;;;28.88;18.67;;;;;;;3.17;62.71;100845.13;5050525;28;20028;-72
2024/02/24 09:39:35;;;;;;;30.52;19.48;;;;;;;3.28;62.82;100844.75;5050909;28;20033;-72
2024/02/24 09:42:00;;;;;;;30.15;18.70;;;;;;;3.37;61.74;100854.16;5050357;28;20108;-66
2024/02/24 09:44:29;;;;;;;28.48;18.73;;;;;;;3.29;61.98;100862.38;5050039;28;20069;-72
2024/02/24 09:46:57;;;;;;;30.30;18.63;;;;;;;3.15;62.84;100836.38;5049898;28;20043;-74
2024/02/24 09:49:24;;;;;;;30.13;19.65;;;;;;;3.21;62.45;100838.81;5050388;28;20032;-73
2024/02/24 09:51:50;;;;;;;28.10;18.65;;;;;;;3.22;62.43;100848.47;5050244;28;20369;-71
2024/02/24 09:54:15;;;;;;;30.33;19.95;;;;;;;3.22;62.49;100844.94;5049698;28;20033;-72
2024/02/24 09:56:42;;;;;;;30.00;19.73;;;;;;;3.15;62.10;100831.09;5049584;28;20037;-73
2024/02/24 09:59:08;;;;;;;32.58;19.83;;;;;;;3.25;62.52;100848.38;5050043;28;20093;-73
2024/02/24 10:01:37;;;;;;;32.15;20.17;;;;;;;3.22;63.26;100867.00;5049968;28;20033;-71
2024/02/24 10:04:03;;;;;;;30.58;18.52;;;;;;;2.95;62.10;100816.72;5049581;28;20120;-72
2024/02/24 10:06:28;;;;;;;33.22;18.98;;;;;;;3.23;62.72;100851.97;5049970;28;20033;-72
2024/02/24 10:08:54;;;;;;;31.45;20.38;;;;;;;3.22;62.32;100851.13;5050226;28;20089;-72
2024/02/24 10:11:20;;;;;;;37.15;21.50;;;;;;;3.15;63.05;100839.88;5049457;28;20029;-72
2024/02/24 10:13:46;;;;;;;32.83;21.02;;;;;;;3.06;62.41;100834.00;5048992;28;20039;-73
2024/02/24 10:16:12;;;;;;;24.83;15.95;;;;;;;3.32;62.50;100845.50;5049652;28;20025;-73
2024/02/24 10:18:41;;;;;;;30.05;18.52;;;;;;;3.42;62.09;100844.28;5049173;28;20462;-72
2024/02/24 10:21:07;;;;;;;27.90;18.08;;;;;;;3.35;62.12;100850.69;5049566;28;20033;-72
2024/02/24 10:23:32;;;;;;;30.45;19.40;;;;;;;3.26;61.91;100820.97;5048756;28;20062;-68
2024/02/24 10:25:58;;;;;;;30.17;20.05;;;;;;;3.47;61.08;100834.41;5049773;28;20443;-72
2024/02/24 10:28:26;;;;;;;30.23;19.17;;;;;;;3.41;62.12;100845.22;5048689;28;20033;-72
2024/02/24 10:30:54;;;;;;;30.33;18.63;;;;;;;3.34;62.13;100831.31;5049296;28;20043;-73
2024/02/24 10:33:21;;;;;;;33.75;20.42;;;;;;;3.46;61.46;100848.56;5049622;28;20029;-71
2024/02/24 10:35:47;;;;;;;29.55;19.40;;;;;;;3.49;61.36;100840.50;5049349;28;20036;-73
2024/02/24 10:38:12;;;;;;;31.23;19.70;;;;;;;3.40;60.97;100851.44;5027371;28;20445;-72
2024/02/24 10:40:40;;;;;;;30.20;19.13;;;;;;;3.45;61.73;100842.38;5029969;28;20346;-72
2024/02/24 10:43:06;;;;;;;32.33;19.67;;;;;;;3.42;61.69;100852.22;5029846;28;20038;-71
2024/02/24 10:45:32;;;;;;;27.08;18.85;;;;;;;3.53;60.95;100871.25;5029612;28;20025;-72
2024/02/24 10:47:58;;;;;;;26.23;18.25;;;;;;;3.49;60.55;100859.03;5047866;28;20036;-72
2024/02/24 10:50:24;;;;;;;27.27;18.98;;;;;;;3.35;61.27;100840.09;5049473;28;20047;-73
2024/02/24 10:52:51;;;;;;;28.90;18.80;;;;;;;3.46;61.26;100856.50;5048032;28;20056;-72
2024/02/24 10:55:21;;;;;;;28.42;18.35;;;;;;;3.40;61.49;100851.44;5049164;28;20041;-72
2024/02/24 10:57:47;;;;;;;28.58;19.13;;;;;;;3.38;62.30;100856.75;5049448;28;20033;-72
2024/02/24 11:00:32;;;;;;;25.98;16.63;;;;;;;3.66;61.47;100854.94;5048751;28;20032;-71
2024/02/24 11:02:59;;;;;;;28.27;19.08;;;;;;;3.63;60.75;100879.75;5047894;28;20476;-72
2024/02/24 11:05:25;;;;;;;27.13;17.65;;;;;;;3.51;61.51;100843.97;5049504;28;20070;-72
2024/02/24 11:07:51;;;;;;;28.55;18.30;;;;;;;3.56;60.91;100851.75;5048756;28;20361;-72
2024/02/24 11:10:21;;;;;;;27.17;18.85;;;;;;;3.60;61.39;100853.38;5048668;28;20029;-70